Terminal Aerodrome Forecast
Issued by NWS

Home | Current Version | Previous Version | Graphics & Text | Print | Product List | Glossary On
Versions: 1 2 3 4 5 6 7 8 9 10 11 12 13 14 15 16 17 18 19 20
000
FTUS43 KGRB 210314 AAA
TAFRHI
TAF AMD
KRHI 210314Z 2103/2124 22012G20KT P6SM BKN200 WS015/24045KT
     FM210400 24012G20KT P6SM SCT200 WS015/28040KT
     FM210800 27013G21KT P6SM SCT035
     FM211100 29014G26KT P6SM SCT025 OVC040 PROB30 2115/2119 4SM
      -SHSN BKN020
     FM212200 31010KT P6SM BKN035=

USA.gov is the U.S. government's official web portal to all federal, state and local government web resources and services.